Airfield :
LOGIN :

Register | Disclaimer

   EN    FR    IT 

 










Legend :    VFR   Marginal VFR   IFR   Intensive IFR   Very Intensive IFR
Visi :
Ceiling :
>= 8 km
>= 3000ft
5 to 8 km
1000 to 3000 ft
1500m to 5 km
500 to 1000 ft
800 to 1500m
200 to 500 ft
< 800m
< 200 ft
Symbols :   Thunderstorms  Fog  Heavy snow  Heavy precipitations  Wind > 20 kt
SIGMETs :     Misc.  Thunderstorms  Icing  Turbulence  Mountain Waves  Volcanic Ashes







- Airport Elevation : 1213 ft
- IATA code : SCQ


LEST - Santiago de Compostela

CURRENT METAR :
  • 301630Z 30013G23KT 270V340 9999 SCT030 SCT045TCU 09/02 Q1014 WS ALL RWY NOSIG

EXPIRED METARs :
  • 301600Z 30013G24KT 260V330 9999 SCT030 SCT040TCU 11/01 Q1013 WS ALL RWY TEMPO SHRA
  • 301530Z 28014G27KT 230V310 9999 -SHRA SCT030 SCT040TCU 10/02 Q1013 WS ALL RWY TEMPO SHRA
  • 301500Z 30012KT 260V330 9999 SCT030 SCT040TCU 10/02 Q1012 WS ALL RWY TEMPO SHRA
  • 301430Z 27011G21KT 230V300 9999 SCT030 SCT040TCU 09/03 Q1012 WS ALL RWY TEMPO SHRA
  • 301400Z 29013G26KT 230V340 9999 FEW020 SCT040TCU 10/04 Q1012 WS ALL RWY TEMPO SHRA

TAF AMD TAF LEST
Valid from the 30 at 13:00 until the 01 at 12:00 UTC


301306Z 3013/0112 29009KT 9999 SCT030 SCT045 TX14/0112Z TN05/0106Z
TEMPO 3013/3016 29018G32KT RA SHRA SCT025TCU
BECMG 3018/3021 22010KT
No reported NOTAMs for that airfield.
1 SIGMET reported for the Madrid FIR (LECM) :
 
Severe mountain waves
LECM SIGMET 6 VALID 301337/301700 LEVA
LECM MADRID FIR/UIR SEV MTW OBS AT 1337Z N OF LINE N4250 W00120 - N4230 W00020 FL060/350 STNR NC=



MET'MAP, your aeronautical weather chart ! - Copyright ORBIFLY December 2007 - Disclaimer

ORBIFLY MET'MAP TEAM :

Programming & Development : Alexandra Zaïnal
Concept & Development : Baudouin d'Aumeries
Co-Development & Prog : Marc-Olivier Méhu
Technical & hardware support : Manuel Goepfert

Contact : metmap@orbifly.com




SOURCES & CREDITS :

   NOAA